Time;durP1;ratioP1;P1;durP2;ratioP2;P2;SDS_P1;SDS_P2;PMS_P1;PMS_P2;Temp;Humidity;BMP_temperature;BMP_pressure;BME280_temperature;BME280_humidity;BME280_pressure;Samples;Min_cycle;Max_cycle;Signal;HPM_P1;HPM_P2
2023/04/18 00:01:09;;;;;;;24.80;12.02;;;;;;;7.67;100.00;96000.19;5073170;28;20040;-67
2023/04/18 00:03:37;;;;;;;20.35;12.30;;;;;;;7.67;100.00;95997.56;5073114;28;20051;-67
2023/04/18 00:06:05;;;;;;;18.85;12.35;;;;;;;7.68;100.00;96001.03;5073143;28;20044;-66
2023/04/18 00:08:33;;;;;;;26.38;12.23;;;;;;;7.71;100.00;96006.97;5073217;28;20049;-66
2023/04/18 00:11:00;;;;;;;24.65;13.45;;;;;;;7.73;100.00;96008.69;5073185;28;20040;-66
2023/04/18 00:13:28;;;;;;;22.88;13.60;;;;;;;7.75;100.00;96002.53;5073005;28;20528;-66
2023/04/18 00:15:56;;;;;;;21.83;12.68;;;;;;;7.75;100.00;96005.13;5073031;28;20127;-66
2023/04/18 00:18:25;;;;;;;22.90;12.35;;;;;;;7.78;100.00;96002.41;5073072;28;20386;-67
2023/04/18 00:20:52;;;;;;;19.35;12.50;;;;;;;7.80;100.00;96010.16;5073017;28;20041;-66
2023/04/18 00:23:20;;;;;;;19.42;11.88;;;;;;;7.84;100.00;95999.59;5073042;28;20087;-66
2023/04/18 00:25:47;;;;;;;21.17;11.63;;;;;;;7.87;100.00;96003.84;5072816;28;20106;-66
2023/04/18 00:28:14;;;;;;;24.50;12.20;;;;;;;7.85;100.00;96005.63;5072914;28;20135;-67
2023/04/18 00:30:43;;;;;;;18.95;11.07;;;;;;;7.80;100.00;96007.56;5076419;28;20049;-66
2023/04/18 00:33:10;;;;;;;15.88;11.20;;;;;;;7.75;100.00;96004.25;5076986;28;20098;-67
2023/04/18 00:35:38;;;;;;;19.23;11.05;;;;;;;7.67;100.00;95988.91;5076993;28;20041;-67
2023/04/18 00:38:05;;;;;;;20.63;11.40;;;;;;;7.71;100.00;95983.53;5077036;28;20051;-65
2023/04/18 00:40:32;;;;;;;19.08;11.35;;;;;;;7.74;100.00;95998.22;5076952;28;20067;-66
2023/04/18 00:42:59;;;;;;;22.05;11.48;;;;;;;7.67;100.00;95991.50;5076945;28;20049;-65
2023/04/18 00:45:26;;;;;;;19.40;11.40;;;;;;;7.65;100.00;95991.56;5076916;28;20052;-66
2023/04/18 00:47:55;;;;;;;19.13;12.20;;;;;;;7.71;100.00;95986.16;5076663;28;20067;-66
2023/04/18 00:50:23;;;;;;;17.27;10.82;;;;;;;7.76;100.00;95980.78;5076948;28;20048;-66
2023/04/18 00:52:51;;;;;;;16.45;10.63;;;;;;;7.72;100.00;95981.81;5076565;28;20056;-66
2023/04/18 00:55:18;;;;;;;25.02;12.18;;;;;;;7.75;100.00;95986.03;5076606;28;20102;-65
2023/04/18 00:57:46;;;;;;;23.50;11.85;;;;;;;7.77;100.00;95992.88;5076484;28;20559;-66
2023/04/18 01:00:14;;;;;;;20.90;11.10;;;;;;;7.77;100.00;95986.84;5076532;28;20414;-66
2023/04/18 01:02:41;;;;;;;18.00;10.75;;;;;;;7.85;100.00;95979.59;5076497;28;20101;-66
2023/04/18 01:05:10;;;;;;;23.95;12.45;;;;;;;7.90;100.00;95975.09;5076429;28;20083;-66
2023/04/18 01:07:40;;;;;;;19.27;12.20;;;;;;;7.88;100.00;95984.69;5076333;28;20048;-66
2023/04/18 01:10:09;;;;;;;27.70;12.77;;;;;;;7.86;100.00;95976.09;5076394;28;20048;-66
2023/04/18 01:12:36;;;;;;;19.05;12.07;;;;;;;7.92;100.00;95975.03;5076297;28;20360;-66
2023/04/18 01:15:04;;;;;;;22.90;12.45;;;;;;;8.00;100.00;95974.75;5076103;28;20056;-65
2023/04/18 01:17:33;;;;;;;23.52;13.25;;;;;;;8.00;100.00;95980.78;5076187;28;20044;-65
2023/04/18 01:20:00;;;;;;;20.30;12.55;;;;;;;8.01;100.00;95977.28;5076122;28;20041;-65
2023/04/18 01:22:31;;;;;;;24.52;12.75;;;;;;;8.07;100.00;95982.25;5076069;28;20044;-65
2023/04/18 01:25:00;;;;;;;19.00;12.00;;;;;;;8.12;100.00;95979.50;5076068;28;20102;-67
2023/04/18 01:27:27;;;;;;;20.42;12.05;;;;;;;8.21;100.00;95981.75;5076059;28;20049;-66
2023/04/18 01:29:54;;;;;;;21.33;12.55;;;;;;;8.25;100.00;95973.84;5076113;28;20045;-66
2023/04/18 01:32:21;;;;;;;22.10;12.55;;;;;;;8.29;100.00;95970.19;5075902;28;20048;-67
2023/04/18 01:34:49;;;;;;;23.50;12.48;;;;;;;8.36;100.00;95978.66;5075764;28;20136;-66
2023/04/18 01:37:16;;;;;;;25.40;12.82;;;;;;;8.37;100.00;95973.34;5075870;28;20051;-66
2023/04/18 01:39:43;;;;;;;24.25;12.30;;;;;;;8.43;100.00;95977.50;5075710;28;20090;-66
2023/04/18 01:42:12;;;;;;;23.60;12.52;;;;;;;8.49;100.00;95985.06;5075798;28;20414;-66
2023/04/18 01:44:39;;;;;;;22.60;12.85;;;;;;;8.52;100.00;95979.72;5075831;28;20052;-66
2023/04/18 01:47:06;;;;;;;21.50;12.25;;;;;;;8.51;100.00;95975.44;5075508;28;20051;-66
2023/04/18 01:49:33;;;;;;;27.83;12.60;;;;;;;8.55;99.71;95979.66;5075573;28;20044;-66
2023/04/18 01:52:00;;;;;;;24.85;12.18;;;;;;;8.52;99.19;95979.72;5075624;28;20049;-66
2023/04/18 01:54:27;;;;;;;23.55;12.10;;;;;;;8.53;99.05;95985.81;5075573;28;20490;-65
2023/04/18 01:56:55;;;;;;;26.48;13.30;;;;;;;8.53;98.67;95983.19;5075519;28;20044;-65
2023/04/18 01:59:23;;;;;;;29.65;13.05;;;;;;;8.49;98.82;95987.66;5075469;28;20048;-67
2023/04/18 02:01:51;;;;;;;20.52;12.38;;;;;;;8.51;98.65;95990.22;5075582;28;20072;-66
2023/04/18 02:04:19;;;;;;;22.23;11.82;;;;;;;8.50;98.37;95994.59;5075345;28;20094;-66
2023/04/18 02:06:47;;;;;;;23.20;11.82;;;;;;;8.43;98.47;96000.97;5075333;28;20052;-66
2023/04/18 02:09:14;;;;;;;16.80;10.35;;;;;;;8.39;98.15;95995.00;5075341;28;20481;-65
2023/04/18 02:11:41;;;;;;;15.70;10.98;;;;;;;8.32;98.37;95999.59;5075184;28;20048;-66
2023/04/18 02:14:08;;;;;;;21.40;12.50;;;;;;;8.28;98.59;96003.22;5075091;28;20140;-66
2023/04/18 02:16:37;;;;;;;27.55;12.15;;;;;;;8.25;98.76;96005.94;5075283;28;20082;-66
2023/04/18 02:19:05;;;;;;;19.23;11.25;;;;;;;8.15;99.27;95997.63;5075207;28;20061;-65
2023/04/18 02:21:32;;;;;;;18.27;10.23;;;;;;;8.08;99.57;96001.34;5075209;28;20122;-66
2023/04/18 02:23:59;;;;;;;18.13;10.95;;;;;;;8.07;100.00;95999.66;5075102;28;20460;-65
2023/04/18 02:26:26;;;;;;;17.27;10.70;;;;;;;8.01;99.95;96000.72;5075033;28;20058;-65
2023/04/18 02:28:53;;;;;;;21.60;10.23;;;;;;;8.03;100.00;95996.31;5074955;28;20132;-66
2023/04/18 02:31:20;;;;;;;17.25;11.00;;;;;;;8.00;100.00;96004.25;5074877;28;20045;-66
2023/04/18 02:33:49;;;;;;;17.90;10.80;;;;;;;7.99;100.00;96001.69;5074704;28;20067;-66
2023/04/18 02:36:16;;;;;;;17.45;10.07;;;;;;;7.93;100.00;95998.41;5074756;28;20048;-65
2023/04/18 02:38:43;;;;;;;17.80;11.30;;;;;;;7.93;100.00;96000.16;5074721;28;20509;-66
2023/04/18 02:41:13;;;;;;;20.95;11.48;;;;;;;7.93;100.00;96003.63;5074593;28;20079;-66
2023/04/18 02:43:41;;;;;;;21.10;11.40;;;;;;;7.94;100.00;96002.72;5074659;28;20513;-66
2023/04/18 02:46:08;;;;;;;16.40;10.85;;;;;;;7.98;100.00;96003.47;5074563;28;20106;-67
2023/04/18 02:48:35;;;;;;;17.98;10.70;;;;;;;7.95;100.00;95999.19;5074423;28;20052;-65
2023/04/18 02:51:05;;;;;;;19.17;11.48;;;;;;;7.96;100.00;96005.25;5074642;28;20109;-66
2023/04/18 02:53:32;;;;;;;19.40;11.23;;;;;;;7.97;100.00;96004.34;5073815;28;20504;-66
2023/04/18 02:56:00;;;;;;;20.17;11.15;;;;;;;8.02;100.00;96006.78;5074488;28;20465;-66
2023/04/18 02:58:27;;;;;;;17.10;10.85;;;;;;;8.12;100.00;96007.31;5074378;28;20098;-66
2023/04/18 03:00:55;;;;;;;18.90;10.38;;;;;;;8.12;100.00;96005.53;5074348;28;20473;-66
2023/04/18 03:03:22;;;;;;;22.33;11.23;;;;;;;8.12;100.00;95997.72;5074213;28;20124;-65
2023/04/18 03:05:49;;;;;;;19.40;11.02;;;;;;;8.07;100.00;96002.28;5074077;28;20561;-66
2023/04/18 03:08:17;;;;;;;19.10;11.45;;;;;;;8.11;100.00;95997.78;5074115;28;20102;-65
2023/04/18 03:10:45;;;;;;;16.63;10.77;;;;;;;8.12;100.00;96002.94;5074015;28;20502;-66
2023/04/18 03:13:12;;;;;;;21.10;10.95;;;;;;;8.14;100.00;95997.69;5074246;28;20052;-66
2023/04/18 03:15:39;;;;;;;17.23;10.80;;;;;;;8.08;100.00;96004.81;5074073;28;20052;-66
2023/04/18 03:18:06;;;;;;;19.20;11.73;;;;;;;8.11;100.00;96003.84;5074116;28;20045;-66
2023/04/18 03:20:34;;;;;;;20.33;11.63;;;;;;;8.06;100.00;96004.03;5073965;28;20452;-65
2023/04/18 03:23:01;;;;;;;18.25;10.77;;;;;;;8.04;99.99;96007.59;5073914;28;20041;-67
2023/04/18 03:25:30;;;;;;;20.42;10.20;;;;;;;8.05;100.00;96001.47;5073847;28;20106;-66
2023/04/18 03:27:57;;;;;;;17.30;10.40;;;;;;;8.11;100.00;96009.06;5073821;28;20048;-66
2023/04/18 03:30:25;;;;;;;17.90;10.23;;;;;;;8.14;99.96;96006.34;5073842;28;20101;-66
2023/04/18 03:32:54;;;;;;;23.92;10.77;;;;;;;8.22;99.96;96001.69;5073739;28;20437;-65
2023/04/18 03:35:23;;;;;;;19.40;10.10;;;;;;;8.29;99.86;95998.84;5073559;28;20078;-66
2023/04/18 03:37:51;;;;;;;18.48;10.20;;;;;;;8.38;99.46;96005.47;5073461;28;20555;-66
2023/04/18 03:40:19;;;;;;;14.05;9.55;;;;;;;8.43;98.79;95995.75;5073465;28;20097;-67
2023/04/18 03:42:48;;;;;;;18.92;10.27;;;;;;;8.43;98.28;96009.59;5073495;28;20059;-66
2023/04/18 03:45:15;;;;;;;18.15;9.77;;;;;;;8.43;98.06;96006.16;5073498;28;20136;-66
2023/04/18 03:47:42;;;;;;;21.30;11.57;;;;;;;8.38;98.22;96001.13;5073281;28;20044;-67
2023/04/18 03:50:10;;;;;;;19.25;11.55;;;;;;;8.38;98.42;95997.66;5073501;28;20052;-66
2023/04/18 03:52:38;;;;;;;28.50;11.65;;;;;;;8.36;98.85;96005.53;5073678;28;20084;-67
2023/04/18 03:55:06;;;;;;;34.70;11.88;;;;;;;8.38;98.37;96005.47;5073722;28;20067;-65
2023/04/18 03:57:33;;;;;;;24.83;11.52;;;;;;;8.41;98.31;96003.63;5073326;28;20041;-66
2023/04/18 04:00:03;;;;;;;33.08;11.70;;;;;;;8.38;98.43;95989.84;5073522;28;20128;-66
2023/04/18 04:02:31;;;;;;;38.38;12.40;;;;;;;8.36;98.79;95992.50;5073210;28;20049;-66
2023/04/18 04:04:59;;;;;;;32.80;11.55;;;;;;;8.32;99.01;95998.75;5072702;28;20526;-66
2023/04/18 04:07:26;;;;;;;19.77;11.35;;;;;;;8.37;98.83;95996.81;5073262;28;20071;-66
2023/04/18 04:09:54;;;;;;;21.15;12.10;;;;;;;8.39;99.10;95994.13;5073238;28;20047;-66
2023/04/18 04:12:21;;;;;;;20.08;11.20;;;;;;;8.48;99.16;95993.78;5073184;28;20406;-66
2023/04/18 04:14:48;;;;;;;16.85;9.93;;;;;;;8.47;98.96;95995.56;5072903;28;20494;-66
2023/04/18 04:17:18;;;;;;;17.80;10.63;;;;;;;8.51;98.63;96000.63;5073324;28;20140;-67
2023/04/18 04:19:45;;;;;;;15.18;9.18;;;;;;;8.53;98.23;96009.25;5073228;28;20048;-66
2023/04/18 04:22:13;;;;;;;15.10;9.63;;;;;;;8.47;98.19;96003.38;5073458;28;20398;-65
2023/04/18 04:24:40;;;;;;;12.60;9.27;;;;;;;8.54;98.34;96006.63;5073302;28;20040;-66
2023/04/18 04:27:09;;;;;;;14.73;9.35;;;;;;;8.61;98.06;96017.66;5073052;28;20044;-66
2023/04/18 04:29:38;;;;;;;14.00;8.95;;;;;;;8.67;97.80;96017.44;5073117;28;20127;-66
2023/04/18 04:32:07;;;;;;;12.35;8.98;;;;;;;8.74;98.18;96009.38;5073049;28;20128;-66
2023/04/18 04:34:40;;;;;;;13.73;8.90;;;;;;;8.83;97.93;96016.84;5072743;28;20049;-66
2023/04/18 04:37:08;;;;;;;13.13;8.98;;;;;;;8.92;97.95;96021.69;5072834;28;20040;-66
2023/04/18 04:39:35;;;;;;;16.08;10.07;;;;;;;8.92;97.66;96024.31;5072890;28;20048;-65
2023/04/18 04:42:04;;;;;;;12.13;8.40;;;;;;;8.96;96.93;96022.41;5072824;28;20498;-66
2023/04/18 04:44:34;;;;;;;14.00;9.32;;;;;;;9.02;97.00;96027.38;5072752;28;20044;-66
2023/04/18 04:47:02;;;;;;;11.93;9.32;;;;;;;9.12;96.15;96024.41;5072569;28;20055;-66
2023/04/18 04:49:30;;;;;;;13.07;8.68;;;;;;;9.16;95.59;96018.16;5072842;28;20045;-67
2023/04/18 04:52:01;;;;;;;12.60;8.63;;;;;;;9.24;94.95;96021.28;5072763;28;20044;-66
2023/04/18 04:54:31;;;;;;;13.07;8.18;;;;;;;9.27;95.02;96021.16;5072548;28;20059;-66
2023/04/18 04:56:58;;;;;;;11.77;8.35;;;;;;;9.26;94.91;96026.44;5072609;28;20044;-66
2023/04/18 04:59:30;;;;;;;10.18;7.90;;;;;;;9.30;94.01;96026.25;5072600;28;20464;-66
2023/04/18 05:01:58;;;;;;;11.15;8.60;;;;;;;9.32;93.78;96029.66;5072601;28;20083;-66
2023/04/18 05:04:25;;;;;;;14.90;8.65;;;;;;;9.37;94.15;96031.22;5072637;28;20098;-66
2023/04/18 05:06:53;;;;;;;9.77;7.68;;;;;;;9.42;93.30;96032.75;5072598;28;20044;-65
2023/04/18 05:09:23;;;;;;;9.45;7.13;;;;;;;9.48;93.93;96031.63;5072626;28;20482;-65
2023/04/18 05:11:52;;;;;;;17.20;9.57;;;;;;;9.48;94.27;96040.31;5072521;28;20102;-66
2023/04/18 05:14:19;;;;;;;17.90;11.00;;;;;;;9.53;94.68;96041.88;5072534;28;20048;-66
2023/04/18 05:16:46;;;;;;;25.30;13.13;;;;;;;9.45;94.85;96039.63;5075641;28;20048;-66
2023/04/18 05:19:13;;;;;;;19.80;10.00;;;;;;;9.46;94.92;96034.31;5076211;28;20049;-66
2023/04/18 05:21:41;;;;;;;13.65;9.25;;;;;;;9.56;95.10;96036.53;5076085;28;20508;-66
2023/04/18 05:24:09;;;;;;;18.00;10.30;;;;;;;9.63;95.51;96037.97;5075998;28;20040;-66
2023/04/18 05:26:39;;;;;;;17.83;12.20;;;;;;;9.76;95.10;96038.31;5076002;28;20052;-66
2023/04/18 05:29:06;;;;;;;19.02;11.00;;;;;;;9.83;94.73;96041.50;5075940;28;20047;-66
2023/04/18 05:31:33;;;;;;;12.43;9.57;;;;;;;9.86;93.72;96044.84;5075916;28;20044;-67
2023/04/18 05:34:00;;;;;;;16.38;10.50;;;;;;;9.91;93.41;96046.41;5075831;28;20059;-67
2023/04/18 05:36:27;;;;;;;13.07;9.90;;;;;;;9.89;92.65;96040.38;5075775;28;20059;-67
2023/04/18 05:38:57;;;;;;;17.95;10.43;;;;;;;9.84;92.82;96044.06;5076009;28;20048;-67
2023/04/18 05:41:25;;;;;;;15.95;10.57;;;;;;;9.84;93.52;96048.41;5075976;28;20056;-67
2023/04/18 05:43:54;;;;;;;14.20;10.45;;;;;;;9.93;93.60;96041.97;5075777;28;20040;-67
2023/04/18 05:46:21;;;;;;;14.13;9.50;;;;;;;10.00;93.68;96048.63;5075630;28;20044;-66
2023/04/18 05:48:48;;;;;;;14.15;9.88;;;;;;;10.04;93.52;96044.09;5075378;28;20063;-66
2023/04/18 05:51:15;;;;;;;13.30;10.23;;;;;;;10.11;94.01;96041.16;5075591;28;20090;-66
2023/04/18 05:53:42;;;;;;;12.75;9.98;;;;;;;10.19;92.79;96043.44;5075592;28;20057;-65
2023/04/18 05:56:09;;;;;;;12.02;9.57;;;;;;;10.26;92.61;96048.41;5075364;28;20055;-66
2023/04/18 05:58:36;;;;;;;10.98;9.23;;;;;;;10.35;91.11;96042.72;5075511;28;20052;-66
2023/04/18 06:01:07;;;;;;;11.57;9.00;;;;;;;10.59;89.70;96045.19;5075387;28;20049;-66
2023/04/18 06:03:35;;;;;;;11.65;8.35;;;;;;;10.97;87.76;96039.06;5075406;28;20139;-66
2023/04/18 06:06:02;;;;;;;9.85;7.97;;;;;;;11.25;86.58;96032.50;5075347;28;20083;-66
2023/04/18 06:08:29;;;;;;;8.30;7.35;;;;;;;11.56;84.33;96035.41;5075328;28;20045;-66
2023/04/18 06:10:56;;;;;;;10.23;7.80;;;;;;;11.70;81.93;96040.78;5075307;28;20056;-66
2023/04/18 06:13:23;;;;;;;12.43;7.40;;;;;;;11.82;81.61;96041.06;5075223;28;20375;-66
2023/04/18 06:15:50;;;;;;;8.73;7.35;;;;;;;12.01;81.24;96039.19;5074999;28;20052;-67
2023/04/18 06:18:19;;;;;;;8.15;7.13;;;;;;;12.12;80.60;96036.06;5075251;28;20131;-66
2023/04/18 06:20:46;;;;;;;9.10;7.97;;;;;;;12.23;78.87;96040.75;5075099;28;20048;-66
2023/04/18 06:23:15;;;;;;;7.68;6.50;;;;;;;12.32;78.53;96039.41;5075130;28;20501;-66
2023/04/18 06:25:43;;;;;;;10.15;6.72;;;;;;;12.44;78.94;96037.06;5074933;28;20448;-65
2023/04/18 06:28:10;;;;;;;10.40;6.22;;;;;;;12.56;76.86;96039.03;5074083;28;20410;-66
2023/04/18 06:30:38;;;;;;;7.72;6.40;;;;;;;12.59;74.72;96036.25;5074778;28;20048;-65
2023/04/18 06:33:09;;;;;;;7.68;6.38;;;;;;;12.53;77.84;96039.19;5074786;28;20123;-66
2023/04/18 06:35:39;;;;;;;8.25;5.97;;;;;;;12.66;76.96;96046.38;5074751;28;20048;-66
2023/04/18 06:38:06;;;;;;;6.30;5.57;;;;;;;12.69;75.17;96035.72;5074553;28;20055;-67
2023/04/18 06:40:34;;;;;;;5.97;5.38;;;;;;;12.81;74.09;96035.06;5074650;28;20395;-66
2023/04/18 06:43:01;;;;;;;5.35;4.70;;;;;;;12.98;74.16;96039.34;5074628;28;20102;-67
2023/04/18 06:45:30;;;;;;;5.15;4.32;;;;;;;13.11;74.09;96038.69;5074564;28;20044;-67
2023/04/18 06:47:59;;;;;;;8.07;4.53;;;;;;;13.32;72.83;96035.75;5074237;28;20048;-66
2023/04/18 06:50:26;;;;;;;8.23;4.47;;;;;;;13.38;71.86;96038.91;5074433;28;20052;-66
2023/04/18 06:52:55;;;;;;;6.30;4.45;;;;;;;13.54;70.20;96037.22;5074378;28;20048;-66
2023/04/18 06:55:22;;;;;;;5.97;4.35;;;;;;;13.69;66.36;96038.09;5074359;28;20127;-66
2023/04/18 06:57:49;;;;;;;5.78;3.80;;;;;;;13.74;66.14;96047.41;5074278;28;20052;-67
2023/04/18 07:00:17;;;;;;;5.05;4.10;;;;;;;13.86;66.56;96045.81;5074203;28;20415;-67
2023/04/18 07:02:44;;;;;;;6.72;4.40;;;;;;;14.11;67.62;96051.38;5074146;28;20127;-66
2023/04/18 07:05:11;;;;;;;7.38;5.40;;;;;;;14.19;66.39;96032.50;5074200;28;20052;-66
2023/04/18 07:07:39;;;;;;;6.07;4.70;;;;;;;14.29;68.05;96036.28;5074084;28;20048;-66
2023/04/18 07:10:10;;;;;;;5.97;5.18;;;;;;;14.45;68.79;96033.53;5074107;28;20483;-67
2023/04/18 07:12:37;;;;;;;10.30;4.82;;;;;;;14.84;66.69;96040.88;5074078;28;20502;-66
2023/04/18 07:15:05;;;;;;;6.47;4.93;;;;;;;15.13;64.61;96035.53;5073950;28;20045;-66
2023/04/18 07:17:32;;;;;;;7.53;4.65;;;;;;;15.45;64.17;96037.00;5073923;28;20049;-67
2023/04/18 07:19:59;;;;;;;6.20;4.63;;;;;;;15.50;60.62;96040.19;5073822;28;20056;-65
2023/04/18 07:22:26;;;;;;;7.03;4.90;;;;;;;15.74;62.14;96042.97;5073886;28;20049;-66
2023/04/18 07:24:54;;;;;;;5.53;4.15;;;;;;;15.94;57.55;96056.63;5073830;28;20095;-67
2023/04/18 07:27:22;;;;;;;5.38;4.53;;;;;;;15.73;60.18;96043.09;5073792;28;20490;-67
2023/04/18 07:29:50;;;;;;;7.28;5.18;;;;;;;15.87;57.66;96042.16;5073769;28;20186;-67
2023/04/18 07:32:17;;;;;;;5.35;4.65;;;;;;;15.90;58.87;96031.41;5073637;28;20113;-66
2023/04/18 07:34:44;;;;;;;6.03;4.65;;;;;;;15.97;59.46;96029.22;5073542;28;20080;-67
2023/04/18 07:37:12;;;;;;;6.53;5.47;;;;;;;16.07;60.02;96030.28;5073489;28;20131;-67
2023/04/18 07:39:40;;;;;;;6.55;5.43;;;;;;;16.48;60.23;96025.72;5073318;28;20045;-66
2023/04/18 07:42:07;;;;;;;5.03;4.50;;;;;;;16.57;56.86;96018.97;5073544;28;20051;-66
2023/04/18 07:44:36;;;;;;;5.10;4.57;;;;;;;16.43;55.96;96027.84;5073586;28;20088;-66
2023/04/18 07:47:04;;;;;;;6.63;4.72;;;;;;;16.12;57.20;96028.19;5073287;28;20049;-67
2023/04/18 07:49:31;;;;;;;6.65;4.70;;;;;;;16.07;59.17;96027.63;5073429;28;20529;-67
2023/04/18 07:51:58;;;;;;;9.40;5.25;;;;;;;15.79;57.80;96034.75;5073366;28;20053;-66
2023/04/18 07:54:25;;;;;;;7.05;5.70;;;;;;;15.71;62.55;96018.63;5073351;28;20090;-66
2023/04/18 07:56:52;;;;;;;7.65;5.25;;;;;;;16.08;59.49;96020.59;5073245;28;20048;-67
2023/04/18 07:59:19;;;;;;;6.80;5.80;;;;;;;16.31;59.91;96020.78;5073255;28;20071;-66
2023/04/18 08:01:47;;;;;;;6.95;5.43;;;;;;;16.39;59.19;96029.88;5073195;28;20124;-67
2023/04/18 08:04:14;;;;;;;6.88;5.20;;;;;;;16.40;58.31;96023.63;5073201;28;20066;-68
2023/04/18 08:06:41;;;;;;;5.97;5.05;;;;;;;16.71;57.30;96025.91;5073207;28;20075;-68
2023/04/18 08:09:09;;;;;;;11.50;5.00;;;;;;;16.88;56.54;96032.63;5073182;28;20045;-68
2023/04/18 08:11:37;;;;;;;4.97;4.40;;;;;;;16.63;58.57;96033.50;5073146;28;20548;-67
2023/04/18 08:14:04;;;;;;;5.35;4.38;;;;;;;16.69;56.48;96030.44;5073158;28;20498;-67
2023/04/18 08:16:31;;;;;;;6.38;4.25;;;;;;;16.45;55.05;96035.66;5072995;28;20056;-67
2023/04/18 08:19:00;;;;;;;5.70;4.35;;;;;;;16.65;56.49;96032.44;5072961;28;20054;-65
2023/04/18 08:21:27;;;;;;;6.68;4.80;;;;;;;16.73;56.21;96031.06;5073042;28;20486;-66
2023/04/18 08:23:54;;;;;;;9.75;4.47;;;;;;;17.03;56.63;96028.03;5072997;28;20498;-66
2023/04/18 08:26:21;;;;;;;7.85;4.72;;;;;;;16.98;56.62;96031.97;5072918;28;20044;-67
2023/04/18 08:28:49;;;;;;;6.63;4.85;;;;;;;16.93;54.96;96025.22;5072937;28;20083;-66
2023/04/18 08:31:16;;;;;;;10.13;4.85;;;;;;;16.93;55.63;96024.38;5072897;28;20166;-66
2023/04/18 08:33:43;;;;;;;4.78;4.22;;;;;;;17.01;52.86;96018.53;5072989;28;20041;-67
2023/04/18 08:36:12;;;;;;;6.35;3.83;;;;;;;16.95;55.05;96011.91;5072747;28;20131;-66
2023/04/18 08:38:39;;;;;;;6.35;4.85;;;;;;;17.00;57.75;96022.97;5072942;28;20521;-67
2023/04/18 08:41:06;;;;;;;8.20;4.97;;;;;;;17.12;57.20;96015.13;5072846;28;20098;-68
2023/04/18 08:43:33;;;;;;;5.28;3.92;;;;;;;17.01;57.02;96021.19;5072800;28;20139;-67
2023/04/18 08:46:01;;;;;;;4.07;3.53;;;;;;;17.13;54.35;96033.50;5072796;28;20083;-66
2023/04/18 08:48:28;;;;;;;8.52;4.75;;;;;;;17.25;55.35;96044.16;5072612;28;20485;-66
2023/04/18 08:51:00;;;;;;;5.07;4.28;;;;;;;17.35;55.77;96036.38;5074731;28;20132;-66
2023/04/18 08:53:31;;;;;;;9.45;4.53;;;;;;;17.17;52.42;96048.22;5076715;28;20045;-66
2023/04/18 08:55:59;;;;;;;5.18;4.50;;;;;;;16.68;55.05;96036.69;5076631;28;20410;-66
2023/04/18 08:58:27;;;;;;;5.43;4.20;;;;;;;16.34;57.43;96042.53;5076539;28;20449;-66
2023/04/18 09:00:54;;;;;;;17.00;10.07;;;;;;;15.88;62.35;96035.94;5076509;28;20485;-67
2023/04/18 09:03:38;;;;;;;14.25;9.45;;;;;;;15.56;64.06;96041.59;5076482;28;20041;-68
2023/04/18 09:06:15;;;;;;;16.00;10.05;;;;;;;14.93;66.23;96045.53;5076493;28;20048;-67
2023/04/18 09:08:55;;;;;;;16.58;12.50;;;;;;;14.49;69.33;96036.84;5076438;28;20051;-68
2023/04/18 09:11:27;;;;;;;16.45;11.52;;;;;;;14.08;70.85;96039.28;5076338;28;20478;-68
2023/04/18 09:13:56;;;;;;;14.60;12.07;;;;;;;13.71;72.88;96041.47;5076281;28;20076;-65
2023/04/18 09:16:23;;;;;;;19.13;13.10;;;;;;;13.39;74.59;96032.72;5076173;28;20092;-65
2023/04/18 09:19:10;;;;;;;16.17;12.75;;;;;;;13.49;75.41;96029.56;5076205;28;20102;-67
2023/04/18 09:21:41;;;;;;;15.55;13.18;;;;;;;13.53;75.67;96031.09;5076097;28;20082;-68
2023/04/18 09:24:22;;;;;;;18.60;12.13;;;;;;;13.63;75.66;96023.50;5076147;28;20509;-66
2023/04/18 09:26:52;;;;;;;16.52;11.65;;;;;;;13.76;76.16;96024.47;5076158;28;20044;-67
2023/04/18 09:29:22;;;;;;;20.20;14.57;;;;;;;13.76;78.44;96031.53;5076320;28;20047;-67
2023/04/18 09:31:56;;;;;;;19.83;14.02;;;;;;;13.71;78.33;96036.22;5076170;28;20040;-68
2023/04/18 09:34:25;;;;;;;21.02;13.40;;;;;;;13.63;79.12;96041.91;5076115;28;20048;-68
2023/04/18 09:37:10;;;;;;;18.58;13.05;;;;;;;13.70;78.95;96043.22;5075939;28;20048;-66
2023/04/18 09:39:42;;;;;;;18.48;13.77;;;;;;;13.84;78.12;96045.06;5075226;28;20490;-69
2023/04/18 09:42:10;;;;;;;19.67;13.40;;;;;;;13.92;79.56;96054.28;5075743;28;20052;-66
2023/04/18 09:44:37;;;;;;;19.77;13.63;;;;;;;13.67;82.09;96068.88;5075777;28;20148;-67
2023/04/18 09:47:06;;;;;;;18.70;14.02;;;;;;;13.39;80.01;96076.50;5075527;28;20056;-67
2023/04/18 09:49:33;;;;;;;23.10;15.38;;;;;;;13.22;83.91;96085.34;5075638;28;20131;-68
2023/04/18 09:52:04;;;;;;;20.88;14.98;;;;;;;12.80;84.73;96083.25;5075740;28;20114;-66
2023/04/18 09:54:34;;;;;;;18.13;15.95;;;;;;;12.82;84.87;96080.53;5075625;28;20094;-67
2023/04/18 09:57:07;;;;;;;23.63;17.00;;;;;;;12.87;85.13;96084.59;5075432;28;20051;-66
2023/04/18 09:59:41;;;;;;;20.60;15.48;;;;;;;13.00;85.94;96082.13;5075504;28;20044;-68
2023/04/18 10:02:15;;;;;;;22.75;15.55;;;;;;;13.06;85.09;96090.63;5074131;28;20053;-66
2023/04/18 10:04:45;;;;;;;23.55;16.15;;;;;;;13.01;81.98;96091.69;5075385;28;20486;-66
2023/04/18 10:07:13;;;;;;;23.33;16.58;;;;;;;13.04;84.03;96092.47;5075381;28;20453;-68
2023/04/18 10:09:43;;;;;;;17.48;14.63;;;;;;;12.84;84.85;96083.91;5075283;28;20441;-66
2023/04/18 10:12:12;;;;;;;21.85;14.77;;;;;;;12.77;84.43;96072.91;5075269;28;20395;-66
2023/04/18 10:14:43;;;;;;;21.88;13.73;;;;;;;12.46;80.86;96072.75;5075244;28;20494;-68
2023/04/18 10:17:11;;;;;;;24.73;14.95;;;;;;;12.18;83.24;96063.72;5075208;28;20080;-68
2023/04/18 10:19:40;;;;;;;15.27;10.68;;;;;;;12.25;83.03;96064.25;5075220;28;20044;-69
2023/04/18 10:22:07;;;;;;;12.10;8.88;;;;;;;12.05;82.58;96081.00;5075105;28;20080;-68
2023/04/18 10:24:53;;;;;;;13.15;9.38;;;;;;;11.80;85.74;96077.84;5075008;28;20067;-66
2023/04/18 10:28:00;;;;;;;14.55;11.07;;;;;;;11.55;87.68;96084.31;5074990;28;20048;-67
2023/04/18 10:30:50;;;;;;;15.23;11.32;;;;;;;11.40;87.04;96085.03;5075030;28;20121;-67
2023/04/18 10:33:31;;;;;;;16.33;10.60;;;;;;;11.18;87.67;96080.84;5074837;28;20044;-66
2023/04/18 10:36:15;;;;;;;19.05;12.85;;;;;;;11.05;88.46;96093.69;5074729;28;20628;-69
2023/04/18 10:38:48;;;;;;;19.67;15.48;;;;;;;10.87;89.60;96096.25;5074740;28;20049;-67
2023/04/18 10:41:21;;;;;;;20.73;14.05;;;;;;;10.84;91.05;96093.75;5074713;28;20403;-67
2023/04/18 10:44:30;;;;;;;26.70;17.58;;;;;;;10.90;93.21;96090.88;5074645;28;20080;-66
2023/04/18 10:47:32;;;;;;;21.10;17.33;;;;;;;11.03;91.55;96096.38;5074440;28;20048;-69
2023/04/18 10:50:03;;;;;;;20.55;15.65;;;;;;;11.16;92.85;96095.78;5074625;28;20076;-66
2023/04/18 10:52:31;;;;;;;20.88;14.82;;;;;;;11.22;89.77;96091.09;5074382;28;20135;-66
2023/04/18 10:55:15;;;;;;;19.40;15.18;;;;;;;11.41;89.29;96092.00;5074443;28;20079;-69
2023/04/18 10:57:44;;;;;;;17.60;15.40;;;;;;;11.49;89.61;96097.69;5073394;28;20103;-66
2023/04/18 11:00:12;;;;;;;21.55;16.25;;;;;;;11.32;87.30;96103.75;5074311;28;20044;-66
2023/04/18 11:02:48;;;;;;;19.17;16.38;;;;;;;11.24;88.21;96109.38;5074324;28;20056;-66
2023/04/18 11:05:21;;;;;;;21.58;18.00;;;;;;;11.22;89.51;96098.09;5074189;28;20048;-69
2023/04/18 11:07:48;;;;;;;23.20;17.48;;;;;;;11.32;90.13;96098.53;5074260;28;20494;-68
2023/04/18 11:10:18;;;;;;;25.73;19.30;;;;;;;11.18;88.65;96101.78;5074215;28;20107;-66
2023/04/18 11:12:46;;;;;;;30.65;21.80;;;;;;;11.11;91.47;96096.84;5073628;28;20041;-69
2023/04/18 11:15:16;;;;;;;29.88;22.50;;;;;;;11.03;90.96;96095.50;5073956;28;20101;-66
2023/04/18 11:17:44;;;;;;;30.03;23.87;;;;;;;11.03;90.86;96085.91;5073948;28;20102;-68
2023/04/18 11:20:13;;;;;;;35.42;26.55;;;;;;;10.98;92.06;96085.25;5073904;28;20319;-67
2023/04/18 11:22:45;;;;;;;35.05;26.42;;;;;;;11.09;93.30;96082.13;5073925;28;20084;-66
2023/04/18 11:25:12;;;;;;;28.65;24.73;;;;;;;11.24;92.54;96077.94;5073843;28;20448;-67
2023/04/18 11:27:42;;;;;;;32.17;24.20;;;;;;;11.38;92.66;96077.28;5073790;28;20057;-68
2023/04/18 11:30:10;;;;;;;32.08;23.10;;;;;;;11.41;91.13;96069.25;5073803;28;20045;-66
2023/04/18 11:32:37;;;;;;;29.13;23.25;;;;;;;11.47;91.30;96060.28;5073665;28;20493;-66